sensor_id;sensor_type;location;lat;lon;timestamp;P1;durP1;ratioP1;P2;durP2;ratioP2
13083;SDS011;6608;48.790;9.198;2023-05-23T00:00:54;216.97;;;84.93;;
13083;SDS011;6608;48.790;9.198;2023-05-23T00:03:22;211.73;;;85.53;;
13083;SDS011;6608;48.790;9.198;2023-05-23T00:05:50;214.37;;;85.83;;
13083;SDS011;6608;48.790;9.198;2023-05-23T00:08:16;214.37;;;84.33;;
13083;SDS011;6608;48.790;9.198;2023-05-23T00:10:43;228.77;;;86.87;;
13083;SDS011;6608;48.790;9.198;2023-05-23T00:13:10;223.27;;;87.30;;
13083;SDS011;6608;48.790;9.198;2023-05-23T00:15:36;225.50;;;88.90;;
13083;SDS011;6608;48.790;9.198;2023-05-23T00:18:03;226.10;;;89.60;;
13083;SDS011;6608;48.790;9.198;2023-05-23T00:20:29;239.90;;;93.50;;
13083;SDS011;6608;48.790;9.198;2023-05-23T00:22:57;230.67;;;91.60;;
13083;SDS011;6608;48.790;9.198;2023-05-23T00:25:23;225.13;;;90.50;;
13083;SDS011;6608;48.790;9.198;2023-05-23T00:27:58;230.77;;;92.37;;
13083;SDS011;6608;48.790;9.198;2023-05-23T00:30:24;234.57;;;92.33;;
13083;SDS011;6608;48.790;9.198;2023-05-23T00:32:51;236.87;;;94.03;;
13083;SDS011;6608;48.790;9.198;2023-05-23T00:35:18;234.13;;;92.20;;
13083;SDS011;6608;48.790;9.198;2023-05-23T00:37:44;232.77;;;93.00;;
13083;SDS011;6608;48.790;9.198;2023-05-23T00:40:13;234.53;;;93.20;;
13083;SDS011;6608;48.790;9.198;2023-05-23T00:42:39;233.97;;;93.93;;
13083;SDS011;6608;48.790;9.198;2023-05-23T00:45:06;229.53;;;93.60;;
13083;SDS011;6608;48.790;9.198;2023-05-23T00:47:32;229.47;;;92.90;;
13083;SDS011;6608;48.790;9.198;2023-05-23T00:49:59;238.03;;;92.97;;
13083;SDS011;6608;48.790;9.198;2023-05-23T00:52:25;233.33;;;92.33;;
13083;SDS011;6608;48.790;9.198;2023-05-23T00:54:52;231.63;;;93.10;;
13083;SDS011;6608;48.790;9.198;2023-05-23T00:57:19;227.00;;;93.30;;
13083;SDS011;6608;48.790;9.198;2023-05-23T00:59:46;230.17;;;93.63;;
13083;SDS011;6608;48.790;9.198;2023-05-23T01:02:13;228.37;;;93.27;;
13083;SDS011;6608;48.790;9.198;2023-05-23T01:04:39;232.17;;;93.50;;
13083;SDS011;6608;48.790;9.198;2023-05-23T01:07:06;232.70;;;93.37;;
13083;SDS011;6608;48.790;9.198;2023-05-23T01:09:34;232.80;;;96.73;;
13083;SDS011;6608;48.790;9.198;2023-05-23T01:12:07;235.23;;;94.63;;
13083;SDS011;6608;48.790;9.198;2023-05-23T01:14:40;229.37;;;94.90;;
13083;SDS011;6608;48.790;9.198;2023-05-23T01:17:09;235.00;;;95.67;;
13083;SDS011;6608;48.790;9.198;2023-05-23T01:19:48;232.93;;;96.47;;
13083;SDS011;6608;48.790;9.198;2023-05-23T01:22:20;237.00;;;97.53;;
13083;SDS011;6608;48.790;9.198;2023-05-23T01:24:51;237.50;;;97.87;;
13083;SDS011;6608;48.790;9.198;2023-05-23T01:27:22;232.93;;;95.37;;
13083;SDS011;6608;48.790;9.198;2023-05-23T01:29:51;235.60;;;97.20;;
13083;SDS011;6608;48.790;9.198;2023-05-23T01:32:19;236.97;;;97.27;;
13083;SDS011;6608;48.790;9.198;2023-05-23T01:34:47;239.63;;;99.43;;
13083;SDS011;6608;48.790;9.198;2023-05-23T01:37:14;233.30;;;96.10;;
13083;SDS011;6608;48.790;9.198;2023-05-23T01:39:43;231.27;;;97.93;;
13083;SDS011;6608;48.790;9.198;2023-05-23T01:42:10;242.57;;;97.23;;
13083;SDS011;6608;48.790;9.198;2023-05-23T01:44:36;240.40;;;98.03;;
13083;SDS011;6608;48.790;9.198;2023-05-23T01:47:05;237.33;;;98.87;;
13083;SDS011;6608;48.790;9.198;2023-05-23T01:49:32;242.67;;;100.93;;
13083;SDS011;6608;48.790;9.198;2023-05-23T01:51:59;248.20;;;100.87;;
13083;SDS011;6608;48.790;9.198;2023-05-23T01:54:26;243.37;;;101.33;;
13083;SDS011;6608;48.790;9.198;2023-05-23T01:56:53;251.63;;;103.37;;
13083;SDS011;6608;48.790;9.198;2023-05-23T01:59:20;255.63;;;103.93;;
13083;SDS011;6608;48.790;9.198;2023-05-23T02:01:46;245.37;;;100.97;;
13083;SDS011;6608;48.790;9.198;2023-05-23T02:04:14;263.00;;;102.10;;
13083;SDS011;6608;48.790;9.198;2023-05-23T02:06:41;257.77;;;103.17;;
13083;SDS011;6608;48.790;9.198;2023-05-23T02:09:07;253.10;;;103.70;;
13083;SDS011;6608;48.790;9.198;2023-05-23T02:11:34;262.43;;;106.50;;
13083;SDS011;6608;48.790;9.198;2023-05-23T02:14:00;256.73;;;106.17;;
13083;SDS011;6608;48.790;9.198;2023-05-23T02:16:27;255.47;;;106.33;;
13083;SDS011;6608;48.790;9.198;2023-05-23T02:18:53;252.13;;;106.27;;
13083;SDS011;6608;48.790;9.198;2023-05-23T02:21:22;251.37;;;103.93;;
13083;SDS011;6608;48.790;9.198;2023-05-23T02:23:48;260.40;;;108.60;;
13083;SDS011;6608;48.790;9.198;2023-05-23T02:26:15;260.80;;;107.10;;
13083;SDS011;6608;48.790;9.198;2023-05-23T02:28:41;251.60;;;106.03;;
13083;SDS011;6608;48.790;9.198;2023-05-23T02:31:08;249.13;;;106.30;;
13083;SDS011;6608;48.790;9.198;2023-05-23T02:33:34;250.57;;;106.07;;
13083;SDS011;6608;48.790;9.198;2023-05-23T02:36:00;250.73;;;105.07;;
13083;SDS011;6608;48.790;9.198;2023-05-23T02:38:29;257.20;;;107.27;;
13083;SDS011;6608;48.790;9.198;2023-05-23T02:40:55;257.40;;;108.13;;
13083;SDS011;6608;48.790;9.198;2023-05-23T02:43:21;252.67;;;105.43;;
13083;SDS011;6608;48.790;9.198;2023-05-23T02:45:48;254.97;;;106.03;;
13083;SDS011;6608;48.790;9.198;2023-05-23T02:48:14;260.17;;;109.00;;
13083;SDS011;6608;48.790;9.198;2023-05-23T02:50:41;259.33;;;108.93;;
13083;SDS011;6608;48.790;9.198;2023-05-23T02:53:07;246.27;;;105.87;;
13083;SDS011;6608;48.790;9.198;2023-05-23T02:55:35;252.23;;;109.87;;
13083;SDS011;6608;48.790;9.198;2023-05-23T02:58:02;257.70;;;108.80;;
13083;SDS011;6608;48.790;9.198;2023-05-23T03:00:29;250.93;;;106.17;;
13083;SDS011;6608;48.790;9.198;2023-05-23T03:02:56;254.73;;;105.97;;
13083;SDS011;6608;48.790;9.198;2023-05-23T03:05:22;252.23;;;107.33;;
13083;SDS011;6608;48.790;9.198;2023-05-23T03:07:49;254.73;;;106.90;;
13083;SDS011;6608;48.790;9.198;2023-05-23T03:10:16;256.73;;;106.50;;
13083;SDS011;6608;48.790;9.198;2023-05-23T03:12:45;254.33;;;106.73;;
13083;SDS011;6608;48.790;9.198;2023-05-23T03:15:11;258.17;;;106.60;;
13083;SDS011;6608;48.790;9.198;2023-05-23T03:17:37;255.70;;;107.77;;
13083;SDS011;6608;48.790;9.198;2023-05-23T03:20:04;245.83;;;106.60;;
13083;SDS011;6608;48.790;9.198;2023-05-23T03:22:33;252.27;;;106.53;;
13083;SDS011;6608;48.790;9.198;2023-05-23T03:25:00;251.70;;;108.50;;
13083;SDS011;6608;48.790;9.198;2023-05-23T03:27:26;242.53;;;105.00;;
13083;SDS011;6608;48.790;9.198;2023-05-23T03:29:54;254.47;;;106.03;;
13083;SDS011;6608;48.790;9.198;2023-05-23T03:32:20;245.80;;;106.03;;
13083;SDS011;6608;48.790;9.198;2023-05-23T03:34:47;244.53;;;103.87;;
13083;SDS011;6608;48.790;9.198;2023-05-23T03:37:13;245.37;;;104.80;;
13083;SDS011;6608;48.790;9.198;2023-05-23T03:39:39;248.37;;;104.03;;
13083;SDS011;6608;48.790;9.198;2023-05-23T03:42:06;246.33;;;102.47;;
13083;SDS011;6608;48.790;9.198;2023-05-23T03:44:32;245.20;;;103.80;;
13083;SDS011;6608;48.790;9.198;2023-05-23T03:47:00;248.90;;;103.90;;
13083;SDS011;6608;48.790;9.198;2023-05-23T03:49:26;251.73;;;103.37;;
13083;SDS011;6608;48.790;9.198;2023-05-23T03:51:53;239.80;;;102.13;;
13083;SDS011;6608;48.790;9.198;2023-05-23T03:54:19;239.40;;;101.83;;
13083;SDS011;6608;48.790;9.198;2023-05-23T03:56:46;233.77;;;101.43;;
13083;SDS011;6608;48.790;9.198;2023-05-23T03:59:12;242.83;;;105.33;;
13083;SDS011;6608;48.790;9.198;2023-05-23T04:01:38;236.30;;;102.13;;
13083;SDS011;6608;48.790;9.198;2023-05-23T04:04:06;245.73;;;101.80;;
13083;SDS011;6608;48.790;9.198;2023-05-23T04:06:33;244.53;;;100.53;;
13083;SDS011;6608;48.790;9.198;2023-05-23T04:08:59;242.93;;;101.30;;
13083;SDS011;6608;48.790;9.198;2023-05-23T04:11:26;246.00;;;102.90;;
13083;SDS011;6608;48.790;9.198;2023-05-23T04:13:52;239.57;;;100.33;;
13083;SDS011;6608;48.790;9.198;2023-05-23T04:16:19;242.27;;;101.57;;
13083;SDS011;6608;48.790;9.198;2023-05-23T04:18:47;236.47;;;98.77;;
13083;SDS011;6608;48.790;9.198;2023-05-23T04:21:15;234.60;;;101.00;;
13083;SDS011;6608;48.790;9.198;2023-05-23T04:23:42;233.87;;;100.33;;
13083;SDS011;6608;48.790;9.198;2023-05-23T04:26:08;230.53;;;101.03;;
13083;SDS011;6608;48.790;9.198;2023-05-23T04:28:35;230.43;;;100.37;;
13083;SDS011;6608;48.790;9.198;2023-05-23T04:31:04;234.70;;;99.70;;
13083;SDS011;6608;48.790;9.198;2023-05-23T04:33:30;231.90;;;98.77;;
13083;SDS011;6608;48.790;9.198;2023-05-23T04:35:58;238.63;;;101.03;;
13083;SDS011;6608;48.790;9.198;2023-05-23T04:38:26;228.60;;;98.70;;
13083;SDS011;6608;48.790;9.198;2023-05-23T04:40:52;227.73;;;98.97;;
13083;SDS011;6608;48.790;9.198;2023-05-23T04:43:19;232.07;;;100.97;;
13083;SDS011;6608;48.790;9.198;2023-05-23T04:45:46;231.23;;;99.13;;
13083;SDS011;6608;48.790;9.198;2023-05-23T04:48:13;228.93;;;98.10;;
13083;SDS011;6608;48.790;9.198;2023-05-23T04:50:41;224.70;;;98.23;;
13083;SDS011;6608;48.790;9.198;2023-05-23T04:53:07;230.00;;;98.17;;
13083;SDS011;6608;48.790;9.198;2023-05-23T04:55:35;230.67;;;99.40;;
13083;SDS011;6608;48.790;9.198;2023-05-23T04:58:01;232.20;;;99.40;;
13083;SDS011;6608;48.790;9.198;2023-05-23T05:00:28;231.80;;;98.77;;
13083;SDS011;6608;48.790;9.198;2023-05-23T05:02:55;230.67;;;98.40;;
13083;SDS011;6608;48.790;9.198;2023-05-23T05:05:22;232.13;;;97.37;;
13083;SDS011;6608;48.790;9.198;2023-05-23T05:07:49;225.50;;;98.63;;
13083;SDS011;6608;48.790;9.198;2023-05-23T05:10:15;226.67;;;97.17;;
13083;SDS011;6608;48.790;9.198;2023-05-23T05:12:43;226.17;;;97.67;;
13083;SDS011;6608;48.790;9.198;2023-05-23T05:15:10;227.23;;;98.13;;
13083;SDS011;6608;48.790;9.198;2023-05-23T05:17:37;230.40;;;99.70;;
13083;SDS011;6608;48.790;9.198;2023-05-23T05:20:04;229.03;;;98.47;;
13083;SDS011;6608;48.790;9.198;2023-05-23T05:22:32;227.07;;;97.63;;
13083;SDS011;6608;48.790;9.198;2023-05-23T05:24:59;227.17;;;98.60;;
13083;SDS011;6608;48.790;9.198;2023-05-23T05:27:25;223.90;;;96.93;;
13083;SDS011;6608;48.790;9.198;2023-05-23T05:29:53;226.40;;;98.33;;
13083;SDS011;6608;48.790;9.198;2023-05-23T05:32:22;234.40;;;98.10;;
13083;SDS011;6608;48.790;9.198;2023-05-23T05:34:48;231.50;;;99.70;;
13083;SDS011;6608;48.790;9.198;2023-05-23T05:37:15;218.53;;;96.80;;
13083;SDS011;6608;48.790;9.198;2023-05-23T05:39:42;219.73;;;96.77;;
13083;SDS011;6608;48.790;9.198;2023-05-23T05:42:08;227.07;;;97.13;;
13083;SDS011;6608;48.790;9.198;2023-05-23T05:44:35;222.10;;;96.37;;
13083;SDS011;6608;48.790;9.198;2023-05-23T05:47:02;229.67;;;97.90;;
13083;SDS011;6608;48.790;9.198;2023-05-23T05:49:29;231.13;;;96.90;;
13083;SDS011;6608;48.790;9.198;2023-05-23T05:51:55;221.83;;;95.57;;
13083;SDS011;6608;48.790;9.198;2023-05-23T05:54:22;231.03;;;97.40;;
13083;SDS011;6608;48.790;9.198;2023-05-23T05:56:48;231.67;;;99.80;;
13083;SDS011;6608;48.790;9.198;2023-05-23T05:59:15;221.93;;;96.73;;
13083;SDS011;6608;48.790;9.198;2023-05-23T06:01:41;231.27;;;99.33;;
13083;SDS011;6608;48.790;9.198;2023-05-23T06:04:10;224.83;;;97.17;;
13083;SDS011;6608;48.790;9.198;2023-05-23T06:06:36;230.70;;;98.30;;
13083;SDS011;6608;48.790;9.198;2023-05-23T06:09:03;232.53;;;99.47;;
13083;SDS011;6608;48.790;9.198;2023-05-23T06:11:29;229.67;;;97.33;;
13083;SDS011;6608;48.790;9.198;2023-05-23T06:13:56;231.33;;;98.80;;
13083;SDS011;6608;48.790;9.198;2023-05-23T06:16:22;229.30;;;99.83;;
13083;SDS011;6608;48.790;9.198;2023-05-23T06:18:49;230.03;;;98.40;;
13083;SDS011;6608;48.790;9.198;2023-05-23T06:21:16;225.00;;;95.40;;
13083;SDS011;6608;48.790;9.198;2023-05-23T06:23:43;232.03;;;99.93;;
13083;SDS011;6608;48.790;9.198;2023-05-23T06:26:09;231.30;;;96.63;;
13083;SDS011;6608;48.790;9.198;2023-05-23T06:28:36;224.50;;;96.43;;
13083;SDS011;6608;48.790;9.198;2023-05-23T06:31:03;228.67;;;96.70;;
13083;SDS011;6608;48.790;9.198;2023-05-23T06:33:30;225.93;;;98.43;;
13083;SDS011;6608;48.790;9.198;2023-05-23T06:35:56;221.03;;;97.93;;
13083;SDS011;6608;48.790;9.198;2023-05-23T06:38:25;224.77;;;99.23;;
13083;SDS011;6608;48.790;9.198;2023-05-23T06:40:51;226.07;;;98.60;;
13083;SDS011;6608;48.790;9.198;2023-05-23T06:43:18;229.30;;;99.43;;
13083;SDS011;6608;48.790;9.198;2023-05-23T06:45:44;229.00;;;98.40;;
13083;SDS011;6608;48.790;9.198;2023-05-23T06:48:11;231.97;;;100.10;;
13083;SDS011;6608;48.790;9.198;2023-05-23T06:50:38;228.83;;;99.50;;
13083;SDS011;6608;48.790;9.198;2023-05-23T06:53:04;231.33;;;99.53;;
13083;SDS011;6608;48.790;9.198;2023-05-23T06:55:33;227.87;;;100.13;;
13083;SDS011;6608;48.790;9.198;2023-05-23T06:57:59;221.00;;;98.57;;
13083;SDS011;6608;48.790;9.198;2023-05-23T07:00:28;220.47;;;99.33;;
13083;SDS011;6608;48.790;9.198;2023-05-23T07:02:54;225.50;;;96.83;;
13083;SDS011;6608;48.790;9.198;2023-05-23T07:05:21;227.70;;;96.23;;
13083;SDS011;6608;48.790;9.198;2023-05-23T07:07:47;218.40;;;96.63;;
13083;SDS011;6608;48.790;9.198;2023-05-23T07:10:14;223.30;;;99.13;;
13083;SDS011;6608;48.790;9.198;2023-05-23T07:12:42;222.27;;;97.93;;
13083;SDS011;6608;48.790;9.198;2023-05-23T07:15:09;222.40;;;98.23;;
13083;SDS011;6608;48.790;9.198;2023-05-23T07:17:35;217.23;;;96.57;;
13083;SDS011;6608;48.790;9.198;2023-05-23T07:20:01;221.13;;;98.47;;
13083;SDS011;6608;48.790;9.198;2023-05-23T07:22:29;217.23;;;94.77;;
13083;SDS011;6608;48.790;9.198;2023-05-23T07:24:55;221.23;;;94.47;;
13083;SDS011;6608;48.790;9.198;2023-05-23T07:27:22;214.53;;;91.07;;
13083;SDS011;6608;48.790;9.198;2023-05-23T07:29:49;208.53;;;90.97;;
13083;SDS011;6608;48.790;9.198;2023-05-23T07:32:16;213.30;;;90.47;;
13083;SDS011;6608;48.790;9.198;2023-05-23T07:34:43;211.93;;;91.07;;
13083;SDS011;6608;48.790;9.198;2023-05-23T07:37:09;204.70;;;88.53;;
13083;SDS011;6608;48.790;9.198;2023-05-23T07:39:36;210.70;;;88.17;;
13083;SDS011;6608;48.790;9.198;2023-05-23T07:42:02;206.40;;;87.80;;
13083;SDS011;6608;48.790;9.198;2023-05-23T07:44:29;209.50;;;88.87;;
13083;SDS011;6608;48.790;9.198;2023-05-23T07:46:57;206.17;;;89.70;;
13083;SDS011;6608;48.790;9.198;2023-05-23T07:49:23;214.33;;;90.97;;
13083;SDS011;6608;48.790;9.198;2023-05-23T07:51:50;211.90;;;91.17;;
13083;SDS011;6608;48.790;9.198;2023-05-23T07:54:16;215.53;;;93.93;;
13083;SDS011;6608;48.790;9.198;2023-05-23T07:56:42;218.87;;;93.53;;
13083;SDS011;6608;48.790;9.198;2023-05-23T07:59:09;216.70;;;94.83;;
13083;SDS011;6608;48.790;9.198;2023-05-23T08:01:36;210.73;;;90.70;;
13083;SDS011;6608;48.790;9.198;2023-05-23T08:04:03;213.77;;;92.30;;
13083;SDS011;6608;48.790;9.198;2023-05-23T08:06:30;209.57;;;89.27;;
13083;SDS011;6608;48.790;9.198;2023-05-23T08:08:57;205.03;;;86.73;;
13083;SDS011;6608;48.790;9.198;2023-05-23T08:11:24;203.07;;;86.30;;
13083;SDS011;6608;48.790;9.198;2023-05-23T08:13:51;202.73;;;85.03;;
13083;SDS011;6608;48.790;9.198;2023-05-23T08:16:17;202.33;;;84.30;;
13083;SDS011;6608;48.790;9.198;2023-05-23T08:18:54;205.43;;;85.17;;
13083;SDS011;6608;48.790;9.198;2023-05-23T08:21:22;203.57;;;83.30;;
13083;SDS011;6608;48.790;9.198;2023-05-23T08:23:49;210.07;;;85.53;;
13083;SDS011;6608;48.790;9.198;2023-05-23T08:26:16;201.57;;;82.70;;
13083;SDS011;6608;48.790;9.198;2023-05-23T08:28:43;202.43;;;82.20;;
13083;SDS011;6608;48.790;9.198;2023-05-23T08:31:10;202.87;;;83.63;;
13083;SDS011;6608;48.790;9.198;2023-05-23T08:33:36;209.00;;;83.07;;
13083;SDS011;6608;48.790;9.198;2023-05-23T08:36:03;207.10;;;84.70;;
13083;SDS011;6608;48.790;9.198;2023-05-23T08:38:31;199.23;;;82.03;;
13083;SDS011;6608;48.790;9.198;2023-05-23T08:40:58;198.57;;;82.20;;
13083;SDS011;6608;48.790;9.198;2023-05-23T08:43:25;202.77;;;83.67;;
13083;SDS011;6608;48.790;9.198;2023-05-23T08:45:52;203.63;;;84.33;;
13083;SDS011;6608;48.790;9.198;2023-05-23T08:48:19;203.53;;;83.20;;
13083;SDS011;6608;48.790;9.198;2023-05-23T08:50:46;208.60;;;82.60;;
13083;SDS011;6608;48.790;9.198;2023-05-23T08:53:14;202.27;;;83.93;;
13083;SDS011;6608;48.790;9.198;2023-05-23T08:55:46;200.87;;;83.70;;
13083;SDS011;6608;48.790;9.198;2023-05-23T08:58:12;200.40;;;80.37;;
13083;SDS011;6608;48.790;9.198;2023-05-23T09:00:39;202.33;;;81.83;;
13083;SDS011;6608;48.790;9.198;2023-05-23T09:03:06;203.43;;;85.03;;
13083;SDS011;6608;48.790;9.198;2023-05-23T09:05:33;198.40;;;82.13;;
13083;SDS011;6608;48.790;9.198;2023-05-23T09:08:00;200.03;;;80.37;;
13083;SDS011;6608;48.790;9.198;2023-05-23T09:10:26;202.67;;;82.70;;
13083;SDS011;6608;48.790;9.198;2023-05-23T09:12:55;205.63;;;82.13;;
13083;SDS011;6608;48.790;9.198;2023-05-23T09:15:22;202.90;;;81.03;;
13083;SDS011;6608;48.790;9.198;2023-05-23T09:17:51;200.33;;;81.47;;
13083;SDS011;6608;48.790;9.198;2023-05-23T09:20:17;199.93;;;82.37;;
13083;SDS011;6608;48.790;9.198;2023-05-23T09:22:44;200.77;;;81.47;;
13083;SDS011;6608;48.790;9.198;2023-05-23T09:25:11;204.37;;;80.93;;
13083;SDS011;6608;48.790;9.198;2023-05-23T09:27:37;202.10;;;80.97;;
13083;SDS011;6608;48.790;9.198;2023-05-23T09:30:06;203.97;;;80.67;;
13083;SDS011;6608;48.790;9.198;2023-05-23T09:32:32;205.17;;;83.63;;
13083;SDS011;6608;48.790;9.198;2023-05-23T09:34:59;205.70;;;82.20;;
13083;SDS011;6608;48.790;9.198;2023-05-23T09:37:30;202.87;;;79.60;;
13083;SDS011;6608;48.790;9.198;2023-05-23T09:39:57;200.97;;;78.30;;
13083;SDS011;6608;48.790;9.198;2023-05-23T09:42:24;198.20;;;78.43;;
13083;SDS011;6608;48.790;9.198;2023-05-23T09:44:50;193.47;;;78.93;;
13083;SDS011;6608;48.790;9.198;2023-05-23T09:47:20;197.93;;;78.53;;
13083;SDS011;6608;48.790;9.198;2023-05-23T09:49:46;195.50;;;79.73;;
13083;SDS011;6608;48.790;9.198;2023-05-23T09:52:13;194.27;;;79.43;;
13083;SDS011;6608;48.790;9.198;2023-05-23T09:54:39;192.57;;;77.33;;
13083;SDS011;6608;48.790;9.198;2023-05-23T09:57:06;193.87;;;76.57;;
13083;SDS011;6608;48.790;9.198;2023-05-23T09:59:35;200.70;;;78.63;;
13083;SDS011;6608;48.790;9.198;2023-05-23T10:02:04;200.67;;;77.77;;
13083;SDS011;6608;48.790;9.198;2023-05-23T10:04:33;199.27;;;82.57;;
13083;SDS011;6608;48.790;9.198;2023-05-23T10:07:01;192.40;;;77.40;;
13083;SDS011;6608;48.790;9.198;2023-05-23T10:09:30;200.73;;;77.43;;
13083;SDS011;6608;48.790;9.198;2023-05-23T10:14:46;195.67;;;76.53;;
13083;SDS011;6608;48.790;9.198;2023-05-23T10:17:17;194.80;;;76.20;;
13083;SDS011;6608;48.790;9.198;2023-05-23T10:19:46;194.40;;;75.67;;
13083;SDS011;6608;48.790;9.198;2023-05-23T10:22:13;199.67;;;77.30;;
13083;SDS011;6608;48.790;9.198;2023-05-23T10:24:40;200.90;;;78.33;;
13083;SDS011;6608;48.790;9.198;2023-05-23T10:27:07;194.73;;;78.47;;
13083;SDS011;6608;48.790;9.198;2023-05-23T10:29:34;193.60;;;77.70;;
13083;SDS011;6608;48.790;9.198;2023-05-23T10:32:01;191.23;;;75.03;;
13083;SDS011;6608;48.790;9.198;2023-05-23T10:34:31;193.17;;;77.67;;
13083;SDS011;6608;48.790;9.198;2023-05-23T10:37:01;198.43;;;77.50;;
13083;SDS011;6608;48.790;9.198;2023-05-23T10:39:32;199.73;;;77.53;;
13083;SDS011;6608;48.790;9.198;2023-05-23T10:42:00;199.83;;;77.87;;
13083;SDS011;6608;48.790;9.198;2023-05-23T10:44:28;192.77;;;76.10;;
13083;SDS011;6608;48.790;9.198;2023-05-23T10:46:55;194.53;;;75.30;;
13083;SDS011;6608;48.790;9.198;2023-05-23T10:49:36;190.60;;;75.63;;
13083;SDS011;6608;48.790;9.198;2023-05-23T10:52:04;192.87;;;74.77;;
13083;SDS011;6608;48.790;9.198;2023-05-23T10:54:33;194.80;;;76.70;;
13083;SDS011;6608;48.790;9.198;2023-05-23T10:57:03;196.20;;;75.47;;
13083;SDS011;6608;48.790;9.198;2023-05-23T10:59:30;194.30;;;74.97;;
13083;SDS011;6608;48.790;9.198;2023-05-23T11:01:57;192.60;;;73.80;;
13083;SDS011;6608;48.790;9.198;2023-05-23T11:04:25;196.90;;;75.33;;
13083;SDS011;6608;48.790;9.198;2023-05-23T11:06:52;190.33;;;74.20;;
13083;SDS011;6608;48.790;9.198;2023-05-23T11:09:20;193.43;;;77.57;;
13083;SDS011;6608;48.790;9.198;2023-05-23T11:11:53;190.77;;;75.13;;
13083;SDS011;6608;48.790;9.198;2023-05-23T11:14:30;191.10;;;74.70;;
13083;SDS011;6608;48.790;9.198;2023-05-23T11:16:56;190.20;;;74.43;;
13083;SDS011;6608;48.790;9.198;2023-05-23T11:19:23;191.93;;;73.90;;
13083;SDS011;6608;48.790;9.198;2023-05-23T11:21:56;195.70;;;74.70;;
13083;SDS011;6608;48.790;9.198;2023-05-23T11:24:46;197.00;;;74.10;;
13083;SDS011;6608;48.790;9.198;2023-05-23T11:27:11;198.30;;;75.10;;
13083;SDS011;6608;48.790;9.198;2023-05-23T11:29:38;196.87;;;74.47;;
13083;SDS011;6608;48.790;9.198;2023-05-23T11:32:08;198.45;;;79.85;;
13083;SDS011;6608;48.790;9.198;2023-05-23T11:34:36;189.13;;;73.03;;
13083;SDS011;6608;48.790;9.198;2023-05-23T11:37:03;190.77;;;75.03;;
13083;SDS011;6608;48.790;9.198;2023-05-23T11:39:31;190.07;;;74.90;;
13083;SDS011;6608;48.790;9.198;2023-05-23T11:41:57;193.27;;;75.73;;
13083;SDS011;6608;48.790;9.198;2023-05-23T11:44:24;194.97;;;76.63;;
13083;SDS011;6608;48.790;9.198;2023-05-23T11:47:00;202.57;;;79.97;;
13083;SDS011;6608;48.790;9.198;2023-05-23T11:49:27;199.73;;;75.70;;
13083;SDS011;6608;48.790;9.198;2023-05-23T11:51:53;196.63;;;75.93;;
13083;SDS011;6608;48.790;9.198;2023-05-23T11:54:21;195.50;;;76.07;;
13083;SDS011;6608;48.790;9.198;2023-05-23T11:56:49;192.07;;;76.70;;
13083;SDS011;6608;48.790;9.198;2023-05-23T11:59:15;189.77;;;74.97;;
13083;SDS011;6608;48.790;9.198;2023-05-23T12:01:42;193.30;;;76.00;;
13083;SDS011;6608;48.790;9.198;2023-05-23T12:04:09;192.80;;;74.17;;
13083;SDS011;6608;48.790;9.198;2023-05-23T12:06:37;189.30;;;74.40;;
13083;SDS011;6608;48.790;9.198;2023-05-23T12:09:04;190.47;;;74.33;;
13083;SDS011;6608;48.790;9.198;2023-05-23T12:11:30;206.37;;;81.53;;
13083;SDS011;6608;48.790;9.198;2023-05-23T12:13:58;196.83;;;74.23;;
13083;SDS011;6608;48.790;9.198;2023-05-23T12:16:26;197.23;;;75.07;;
13083;SDS011;6608;48.790;9.198;2023-05-23T12:18:53;195.77;;;75.90;;
13083;SDS011;6608;48.790;9.198;2023-05-23T12:21:23;189.37;;;74.17;;
13083;SDS011;6608;48.790;9.198;2023-05-23T12:23:50;195.27;;;74.83;;
13083;SDS011;6608;48.790;9.198;2023-05-23T12:26:16;195.60;;;77.37;;
13083;SDS011;6608;48.790;9.198;2023-05-23T12:28:43;200.83;;;78.53;;
13083;SDS011;6608;48.790;9.198;2023-05-23T12:31:12;198.97;;;77.30;;
13083;SDS011;6608;48.790;9.198;2023-05-23T12:33:38;200.60;;;77.77;;
13083;SDS011;6608;48.790;9.198;2023-05-23T12:36:07;199.13;;;76.93;;
13083;SDS011;6608;48.790;9.198;2023-05-23T12:38:34;199.73;;;76.73;;
13083;SDS011;6608;48.790;9.198;2023-05-23T12:41:08;194.03;;;75.17;;
13083;SDS011;6608;48.790;9.198;2023-05-23T12:43:36;194.00;;;76.07;;
13083;SDS011;6608;48.790;9.198;2023-05-23T12:46:02;193.70;;;74.63;;
13083;SDS011;6608;48.790;9.198;2023-05-23T12:48:30;193.63;;;75.20;;
13083;SDS011;6608;48.790;9.198;2023-05-23T12:50:57;197.50;;;76.03;;
13083;SDS011;6608;48.790;9.198;2023-05-23T12:53:24;197.67;;;76.20;;
13083;SDS011;6608;48.790;9.198;2023-05-23T12:55:51;193.17;;;75.10;;
13083;SDS011;6608;48.790;9.198;2023-05-23T12:58:17;193.77;;;74.83;;
13083;SDS011;6608;48.790;9.198;2023-05-23T13:00:43;200.10;;;74.77;;
13083;SDS011;6608;48.790;9.198;2023-05-23T13:03:10;199.17;;;75.70;;
13083;SDS011;6608;48.790;9.198;2023-05-23T13:05:38;210.10;;;84.67;;
13083;SDS011;6608;48.790;9.198;2023-05-23T13:08:04;193.70;;;74.47;;
13083;SDS011;6608;48.790;9.198;2023-05-23T13:10:31;197.80;;;74.67;;
13083;SDS011;6608;48.790;9.198;2023-05-23T13:12:57;199.40;;;74.00;;
13083;SDS011;6608;48.790;9.198;2023-05-23T13:15:23;195.67;;;74.33;;
13083;SDS011;6608;48.790;9.198;2023-05-23T13:17:50;197.30;;;73.93;;
13083;SDS011;6608;48.790;9.198;2023-05-23T13:20:16;202.77;;;73.77;;
13083;SDS011;6608;48.790;9.198;2023-05-23T13:22:44;198.23;;;74.37;;
13083;SDS011;6608;48.790;9.198;2023-05-23T13:25:11;194.70;;;73.20;;
13083;SDS011;6608;48.790;9.198;2023-05-23T13:27:37;199.00;;;73.20;;
13083;SDS011;6608;48.790;9.198;2023-05-23T13:30:04;198.00;;;72.73;;
13083;SDS011;6608;48.790;9.198;2023-05-23T13:32:30;196.50;;;73.17;;
13083;SDS011;6608;48.790;9.198;2023-05-23T13:34:57;196.77;;;72.23;;
13083;SDS011;6608;48.790;9.198;2023-05-23T13:37:23;194.90;;;72.43;;
13083;SDS011;6608;48.790;9.198;2023-05-23T13:39:51;198.83;;;74.53;;
13083;SDS011;6608;48.790;9.198;2023-05-23T13:42:17;192.73;;;73.20;;
13083;SDS011;6608;48.790;9.198;2023-05-23T13:44:44;195.13;;;72.33;;
13083;SDS011;6608;48.790;9.198;2023-05-23T13:47:10;197.67;;;71.80;;
13083;SDS011;6608;48.790;9.198;2023-05-23T13:49:37;192.50;;;71.27;;
13083;SDS011;6608;48.790;9.198;2023-05-23T13:52:07;188.50;;;70.40;;
13083;SDS011;6608;48.790;9.198;2023-05-23T13:54:33;193.30;;;70.87;;
13083;SDS011;6608;48.790;9.198;2023-05-23T13:57:01;196.73;;;72.17;;
13083;SDS011;6608;48.790;9.198;2023-05-23T13:59:27;190.30;;;72.30;;
13083;SDS011;6608;48.790;9.198;2023-05-23T14:01:54;187.97;;;71.10;;
13083;SDS011;6608;48.790;9.198;2023-05-23T14:04:20;188.97;;;72.30;;
13083;SDS011;6608;48.790;9.198;2023-05-23T14:06:47;188.17;;;70.97;;
13083;SDS011;6608;48.790;9.198;2023-05-23T14:09:13;190.27;;;72.50;;
13083;SDS011;6608;48.790;9.198;2023-05-23T14:11:40;198.97;;;72.37;;
13083;SDS011;6608;48.790;9.198;2023-05-23T14:14:07;193.90;;;71.53;;
13083;SDS011;6608;48.790;9.198;2023-05-23T14:16:34;194.77;;;71.80;;
13083;SDS011;6608;48.790;9.198;2023-05-23T14:19:00;204.43;;;79.20;;
13083;SDS011;6608;48.790;9.198;2023-05-23T14:21:27;193.80;;;71.20;;